»·PEaware :: N728CS KSBP-KTRK

N728CS :: KSBP-KTRK

FLIGHT INFORMATION

Flight Status: Arrived
Operator: Privately registered:
United States
More flights under this callsign
Pilot: Chandler S. (807)
Aircraft: BEECH AIRCRAFT PREMIER
(PRM1)
More flights by this aircraft type
Origin: KSBP San Luis Co Regl
United States
Destination: KTRK Truckee-Tahoe
United States
More flights between these airports :: More routes between these airports
Route: CREPE3 PRB V113 PXN SWR
File this flight plan on PilotEdge
Remarks:
Altitude:
(Current/Filed)
27,000ft
Speed:
(Current/Filed)
400kts
Departed: 26-Aug-19 11:50 AM
Arrived: 26-Aug-19 12:33 PM
Distance/Time
Traveled:
246nm/0:43
Distance/Time
To Go:
Arrived

Flight Plot

Page will automatically refresh every two minutes.

Flight plan parsing failed; only flown route is shown


Map Options




Map Legend


Flown Route
Filed Route
Departure Airport
Arrival Airport
Navaid (VOR, NDB)
Fix

Horizontal Profiles

Position Reports

Time Latitude Longitude Heading Altitude Ground
Speed
26-Aug-19 11:28 35.238755 -120.639205 268 218ft 0kts
26-Aug-19 11:29 35.238755 -120.639205 268 218ft 0kts
26-Aug-19 11:30 35.238755 -120.639205 268 218ft 0kts
26-Aug-19 11:31 35.238755 -120.639205 268 218ft 0kts
26-Aug-19 11:32 35.238755 -120.639205 268 218ft 0kts
26-Aug-19 11:33 35.238755 -120.639205 268 218ft 0kts
26-Aug-19 11:34 35.238755 -120.639205 268 218ft 0kts
26-Aug-19 11:35 35.238755 -120.639205 268 218ft 0kts
26-Aug-19 11:36 35.238755 -120.639205 268 218ft 0kts
26-Aug-19 11:37 35.238755 -120.639205 268 218ft 0kts
26-Aug-19 11:38 35.238755 -120.639205 268 218ft 0kts
26-Aug-19 11:39 35.238755 -120.639205 268 218ft 0kts
26-Aug-19 11:40 35.238755 -120.639206 268 218ft 0kts
26-Aug-19 11:41 35.238755 -120.639206 268 218ft 0kts
26-Aug-19 11:42 35.238755 -120.639206 268 218ft 0kts
26-Aug-19 11:43 35.238755 -120.639206 268 218ft 0kts
26-Aug-19 11:44 35.238733 -120.639372 254 218ft 5kts
26-Aug-19 11:45 35.236871 -120.638266 123 218ft 16kts
26-Aug-19 11:46 35.234595 -120.634316 124 218ft 10kts
26-Aug-19 11:47 35.233228 -120.632447 206 218ft 0kts
26-Aug-19 11:48 35.233188 -120.632471 206 218ft 2kts
26-Aug-19 11:49 35.243116 -120.650914 306 696ft 163kts
26-Aug-19 11:50 35.273060 -120.711850 307 3424ft 248kts
26-Aug-19 11:51 35.316516 -120.784600 308 6269ft 276kts
26-Aug-19 11:52 35.379296 -120.837426 0 8005ft 313kts
26-Aug-19 11:53 35.455875 -120.794359 34 10602ft 288kts
26-Aug-19 11:54 35.526608 -120.739539 34 12530ft 309kts
26-Aug-19 11:55 35.598756 -120.683912 34 15001ft 302kts
26-Aug-19 11:56 35.672784 -120.632567 16 16944ft 315kts
26-Aug-19 11:57 35.762273 -120.633968 358 18736ft 326kts
26-Aug-19 11:58 35.852418 -120.641556 358 20656ft 324kts
26-Aug-19 11:59 35.943054 -120.648933 358 22404ft 324kts
26-Aug-19 12:00 36.032455 -120.656183 358 24265ft 318kts
26-Aug-19 12:01 36.120097 -120.663319 357 25940ft 316kts
26-Aug-19 12:02 36.204536 -120.677778 352 26986ft 331kts
26-Aug-19 12:03 36.301029 -120.696534 352 27009ft 371kts
26-Aug-19 12:04 36.407316 -120.717523 352 26994ft 398kts
26-Aug-19 12:05 36.519584 -120.739782 352 26964ft 416kts
26-Aug-19 12:06 36.635307 -120.762784 352 26960ft 426kts
26-Aug-19 12:07 36.753552 -120.770803 9 26961ft 429kts
26-Aug-19 12:08 36.871709 -120.747706 11 26958ft 433kts
26-Aug-19 12:09 36.991036 -120.723415 10 26955ft 435kts
26-Aug-19 12:10 37.110389 -120.699323 9 26954ft 436kts
26-Aug-19 12:11 37.230099 -120.675137 9 26958ft 435kts
26-Aug-19 12:12 37.349259 -120.650979 9 26961ft 434kts
26-Aug-19 12:13 37.468553 -120.626607 9 26962ft 434kts
26-Aug-19 12:14 37.587933 -120.602331 9 26955ft 434kts
26-Aug-19 12:15 37.707194 -120.577926 9 26955ft 434kts
26-Aug-19 12:16 37.826242 -120.553471 9 26967ft 434kts
26-Aug-19 12:17 37.945336 -120.528925 9 26990ft 434kts
26-Aug-19 12:18 38.064498 -120.504284 9 26991ft 434kts
26-Aug-19 12:19 38.179851 -120.480359 9 26990ft 434kts
26-Aug-19 12:20 38.299249 -120.455592 9 26959ft 435kts
26-Aug-19 12:21 38.420555 -120.430192 9 25177ft 440kts
26-Aug-19 12:22 38.540213 -120.405108 9 23378ft 435kts
26-Aug-19 12:23 38.658847 -120.380165 9 21569ft 427kts
26-Aug-19 12:24 38.772730 -120.356134 9 19757ft 407kts
26-Aug-19 12:25 38.883116 -120.332790 9 17942ft 395kts
26-Aug-19 12:27 38.990730 -120.309986 9 16052ft 389kts
26-Aug-19 12:28 39.093805 -120.288022 9 14029ft 363kts
26-Aug-19 12:29 39.189335 -120.258532 25 12106ft 349kts
26-Aug-19 12:30 39.279597 -120.243558 358 10380ft 316kts
26-Aug-19 12:31 39.353958 -120.230988 53 8508ft 233kts
26-Aug-19 12:32 39.332240 -120.168925 121 6369ft 170kts
26-Aug-19 12:33 39.318092 -120.138079 184 5906ft 14kts
26-Aug-19 12:34 39.318127 -120.140950 301 5906ft 11kts
26-Aug-19 12:35 39.319605 -120.144667 206 5906ft 3kts
26-Aug-19 12:36 39.319548 -120.144707 209 5906ft 0kts
26-Aug-19 12:37 39.319548 -120.144707 209 5906ft 0kts
26-Aug-19 12:38 39.319548 -120.144707 209 5906ft 0kts
26-Aug-19 12:39 39.319548 -120.144707 209 5906ft 0kts
26-Aug-19 12:40 39.319548 -120.144707 209 5906ft 0kts
26-Aug-19 12:41 39.319548 -120.144707 209 5906ft 0kts
26-Aug-19 12:41 39.319548 -120.144707 209 5906ft 0kts
26-Aug-19 12:43 39.319548 -120.144707 209 5906ft 0kts

Navigation Log

Ident Type
Flight plan parsing failed, navigation log unavailable